Time;durP1;ratioP1;P1;durP2;ratioP2;P2;SDS_P1;SDS_P2;PMS_P1;PMS_P2;Temp;Humidity;BMP_temperature;BMP_pressure;BME280_temperature;BME280_humidity;BME280_pressure;Samples;Min_cycle;Max_cycle;Signal;HPM_P1;HPM_P2
2023/07/27 05:31:07;;;;;;;;;0.67;0.67;;;;;20.48;59.04;100704.72;6281031;22;45385;-89
2023/07/27 05:33:32;;;;;;;;;1.00;0.67;;;;;20.48;58.98;100707.38;6277171;22;45417;-89
2023/07/27 05:35:58;;;;;;;;;0.67;0.67;;;;;20.47;59.02;100708.34;6277194;22;45304;-89
2023/07/27 05:38:23;;;;;;;;;0.67;0.67;;;;;20.46;59.25;100697.88;6305938;22;45321;-88
2023/07/27 05:40:49;;;;;;;;;0.00;0.00;;;;;20.44;59.07;100708.56;6277147;22;45584;-88
2023/07/27 05:43:14;;;;;;;;;1.00;1.00;;;;;20.41;59.28;100701.72;6277255;22;46878;-89
2023/07/27 05:45:39;;;;;;;;;1.00;1.00;;;;;20.42;59.11;100708.66;6277935;22;45400;-89
2023/07/27 05:48:08;;;;;;;;;0.67;0.67;;;;;20.43;58.97;100710.34;6277682;22;45260;-89
2023/07/27 05:50:34;;;;;;;;;0.67;0.00;;;;;20.42;59.19;100711.31;6277767;22;45241;-90
2023/07/27 05:53:00;;;;;;;;;1.00;1.00;;;;;20.43;59.65;100706.88;6277534;22;48187;-89
2023/07/27 05:55:25;;;;;;;;;1.00;1.00;;;;;20.40;59.55;100702.69;6305578;22;45301;-89
2023/07/27 05:57:50;;;;;;;;;1.67;1.67;;;;;20.40;59.52;100696.53;6277128;22;45318;-90
2023/07/27 06:00:16;;;;;;;;;1.00;1.00;;;;;20.42;59.82;100707.84;6278553;22;45484;-90
2023/07/27 06:02:41;;;;;;;;;3.00;1.67;;;;;20.45;59.63;100698.84;6305880;22;45430;-88
2023/07/27 06:05:07;;;;;;;;;3.67;0.67;;;;;20.46;59.43;100701.34;6275114;22;45620;-89
2023/07/27 06:07:33;;;;;;;;;1.00;1.00;;;;;20.50;59.66;100707.25;6277425;22;45352;-89
2023/07/27 06:09:58;;;;;;;;;1.00;1.00;;;;;20.51;59.28;100706.28;6275851;22;45190;-89
2023/07/27 06:12:23;;;;;;;;;1.00;1.00;;;;;20.51;59.41;100707.09;6277970;22;47267;-89
2023/07/27 06:14:49;;;;;;;;;1.67;1.00;;;;;20.54;59.67;100695.44;6304974;22;45330;-88
2023/07/27 06:17:15;;;;;;;;;0.00;0.00;;;;;20.56;59.55;100696.19;6304996;22;45219;-89
2023/07/27 06:19:40;;;;;;;;;1.00;1.00;;;;;20.55;59.31;100695.34;6276963;22;45391;-88
2023/07/27 06:22:06;;;;;;;;;1.00;1.00;;;;;20.53;59.46;100702.56;6277107;22;45880;-89
2023/07/27 06:24:31;;;;;;;;;0.00;0.00;;;;;20.51;59.24;100691.25;6305394;22;45285;-88
2023/07/27 06:26:56;;;;;;;;;1.00;1.00;;;;;20.49;59.45;100706.41;6278918;22;45239;-89
2023/07/27 06:29:22;;;;;;;;;0.33;0.00;;;;;20.49;59.47;100697.63;6279245;22;45475;-89
2023/07/27 06:31:47;;;;;;;;;0.00;0.00;;;;;20.47;59.34;100710.97;6277991;22;45346;-89
2023/07/27 06:34:12;;;;;;;;;1.00;1.00;;;;;20.44;59.15;100703.28;6304868;22;45693;-88
2023/07/27 06:36:42;;;;;;;;;0.00;0.00;;;;;20.46;59.84;100701.34;6250352;22;45267;-88
2023/07/27 06:39:09;;;;;;;;;1.00;1.00;;;;;20.50;59.84;100709.91;6278316;22;45380;-89
2023/07/27 06:41:34;;;;;;;;;1.33;1.00;;;;;20.53;59.46;100699.91;6277421;22;46764;-89
2023/07/27 06:44:00;;;;;;;;;0.00;0.00;;;;;20.58;59.46;100701.34;6278909;22;45238;-89
2023/07/27 06:46:26;;;;;;;;;2.00;1.00;;;;;20.60;59.30;100715.28;6278880;22;45290;-90
2023/07/27 06:48:51;;;;;;;;;2.00;2.00;;;;;20.62;59.72;100727.41;6278708;22;45285;-89
2023/07/27 06:51:18;;;;;;;;;1.67;1.00;;;;;20.63;59.57;100715.03;6278062;22;46782;-89
2023/07/27 06:53:43;;;;;;;;;1.00;1.00;;;;;20.64;59.28;100725.50;6306577;22;45182;-89
2023/07/27 06:56:08;;;;;;;;;2.00;0.33;;;;;20.66;59.16;100735.94;6278074;22;45304;-89
2023/07/27 06:58:34;;;;;;;;;0.00;0.00;;;;;20.64;59.21;100727.31;6279278;22;45507;-88
2023/07/27 07:00:59;;;;;;;;;1.67;1.00;;;;;20.62;59.48;100719.50;6277907;22;45512;-89
2023/07/27 07:03:25;;;;;;;;;2.00;0.33;;;;;20.61;59.93;100722.25;6277537;22;45311;-89
2023/07/27 07:05:53;;;;;;;;;1.00;1.00;;;;;20.61;60.00;100722.25;6278156;22;45246;-89
2023/07/27 07:08:19;;;;;;;;;0.33;0.33;;;;;20.61;59.66;100730.19;6278806;22;45286;-88
2023/07/27 07:10:44;;;;;;;;;1.00;1.00;;;;;20.58;59.60;100722.47;6278158;22;46767;-88
2023/07/27 07:13:10;;;;;;;;;1.33;1.00;;;;;20.58;59.53;100723.34;6277991;22;45253;-88
2023/07/27 07:15:35;;;;;;;;;4.00;2.00;;;;;20.56;59.77;100719.97;6277924;22;45294;-89
2023/07/27 07:18:01;;;;;;;;;1.00;1.00;;;;;20.55;58.88;100727.06;6277163;22;45528;-88
2023/07/27 07:20:29;;;;;;;;;0.00;0.00;;;;;20.56;58.88;100714.69;6277895;22;45820;-89
2023/07/27 07:22:54;;;;;;;;;0.33;0.33;;;;;20.57;58.41;100729.59;6278471;22;45434;-88
2023/07/27 07:25:22;;;;;;;;;1.00;0.33;;;;;20.57;57.89;100721.66;6278646;22;45248;-89
2023/07/27 07:27:48;;;;;;;;;0.00;0.00;;;;;20.61;58.25;100712.53;6278623;22;45553;-89
2023/07/27 07:30:14;;;;;;;;;0.33;0.33;;;;;20.65;57.78;100721.88;6276811;22;45416;-90
2023/07/27 07:32:39;;;;;;;;;1.00;1.00;;;;;20.72;57.60;100724.03;6278107;22;45257;-89
2023/07/27 07:35:05;;;;;;;;;1.00;1.00;;;;;20.76;57.60;100722.84;6277351;22;45304;-89
2023/07/27 07:37:31;;;;;;;;;0.67;0.67;;;;;20.80;57.10;100718.97;6306054;22;45517;-88
2023/07/27 07:39:56;;;;;;;;;0.00;0.00;;;;;20.85;56.16;100723.91;6277444;22;45703;-88
2023/07/27 07:42:22;;;;;;;;;2.00;2.00;;;;;20.87;56.48;100724.66;6277245;22;45215;-89
2023/07/27 07:44:53;;;;;;;;;1.00;1.00;;;;;20.89;55.74;100706.84;6278284;22;45238;-89
2023/07/27 07:47:18;;;;;;;;;1.00;1.00;;;;;20.91;55.95;100708.41;6276904;22;45332;-88
2023/07/27 07:49:44;;;;;;;;;0.33;0.33;;;;;20.94;55.28;100716.13;6277839;22;45703;-89
2023/07/27 07:52:09;;;;;;;;;3.00;1.33;;;;;20.99;55.70;100714.88;6278470;22;46001;-89
2023/07/27 07:54:34;;;;;;;;;1.00;1.00;;;;;21.03;55.47;100718.97;6278364;22;45306;-89
2023/07/27 07:57:00;;;;;;;;;1.00;1.00;;;;;21.06;55.27;100727.50;6278044;22;45294;-89
2023/07/27 07:59:25;;;;;;;;;1.00;1.00;;;;;21.07;55.29;100710.66;6278248;22;46824;-89
2023/07/27 08:01:51;;;;;;;;;1.00;1.00;;;;;21.09;55.08;100713.19;6277789;22;45372;-89
2023/07/27 08:04:17;;;;;;;;;2.67;2.00;;;;;21.16;54.96;100724.94;6277444;22;45311;-89
2023/07/27 08:06:43;;;;;;;;;2.00;2.00;;;;;21.21;54.76;100719.28;6277943;22;45538;-89
2023/07/27 08:09:09;;;;;;;;;2.67;2.67;;;;;21.23;55.03;100720.00;6277057;22;45786;-88
2023/07/27 08:11:34;;;;;;;;;1.33;1.33;;;;;21.25;54.70;100725.16;6277031;22;45257;-88
2023/07/27 08:14:02;;;;;;;;;3.00;1.33;;;;;21.26;54.97;100725.03;6278538;22;45306;-88
2023/07/27 08:16:28;;;;;;;;;2.00;2.00;;;;;21.25;54.77;100715.44;6305929;22;45404;-88
2023/07/27 08:18:53;;;;;;;;;2.00;1.00;;;;;21.24;54.25;100721.66;6277919;22;45708;-89
2023/07/27 08:21:19;;;;;;;;;1.33;1.33;;;;;21.22;53.85;100719.16;6278048;22;45303;-88
2023/07/27 08:23:44;;;;;;;;;0.33;0.33;;;;;21.23;53.94;100715.56;6305832;22;45269;-89
2023/07/27 08:26:11;;;;;;;;;0.67;0.67;;;;;21.22;53.95;100711.22;6306977;22;45210;-88
2023/07/27 08:28:36;;;;;;;;;4.33;1.00;;;;;21.25;53.67;100706.63;6303352;22;45429;-88
2023/07/27 08:31:06;;;;;;;;;1.00;1.00;;;;;21.33;53.77;100704.19;6277172;22;45401;-88
2023/07/27 08:33:33;;;;;;;;;1.00;1.00;;;;;21.34;53.21;100708.53;6277028;22;45327;-88
2023/07/27 08:36:02;;;;;;;;;1.00;1.00;;;;;21.42;53.93;100705.25;6278637;22;45692;-90
2023/07/27 08:38:27;;;;;;;;;0.00;0.00;;;;;21.45;53.84;100692.59;6277446;22;45804;-88
2023/07/27 08:40:57;;;;;;;;;0.67;0.67;;;;;21.54;53.83;100698.09;6277618;22;45417;-88
2023/07/27 08:43:23;;;;;;;;;1.00;1.00;;;;;21.63;53.78;100698.16;6278761;22;45342;-88
2023/07/27 08:45:50;;;;;;;;;3.00;0.67;;;;;21.76;53.53;100702.47;6277544;22;45327;-89
2023/07/27 08:48:16;;;;;;;;;0.33;0.33;;;;;21.88;53.65;100706.72;6277247;22;46644;-90
2023/07/27 08:50:45;;;;;;;;;1.33;1.33;;;;;21.99;53.19;100695.19;6278190;22;45264;-88
2023/07/27 08:53:12;;;;;;;;;1.67;1.00;;;;;22.06;52.97;100705.25;6278496;22;45384;-89
2023/07/27 08:55:40;;;;;;;;;1.33;1.33;;;;;22.07;52.52;100691.91;6278007;22;45509;-89
2023/07/27 08:58:08;;;;;;;;;1.00;1.00;;;;;22.12;52.55;100702.94;6277572;22;45394;-89
2023/07/27 09:00:34;;;;;;;;;2.00;2.00;;;;;22.20;52.98;100706.72;6277390;22;45239;-88
2023/07/27 09:03:00;;;;;;;;;1.33;1.33;;;;;22.29;52.90;100690.03;6278408;22;45342;-88
2023/07/27 09:05:42;;;;;;;;;0.33;0.33;;;;;22.39;52.39;100698.03;6306832;22;45330;-88
2023/07/27 09:08:09;;;;;;;;;2.00;2.00;;;;;22.45;52.35;100694.00;6277628;22;46882;-88
2023/07/27 09:10:40;;;;;;;;;0.67;0.33;;;;;22.52;52.35;100696.03;6277371;22;45437;-88
2023/07/27 09:13:10;;;;;;;;;0.33;0.33;;;;;22.59;52.00;100692.84;6305635;22;45322;-88
2023/07/27 09:15:40;;;;;;;;;2.00;1.00;;;;;22.63;51.73;100702.22;6305149;22;45323;-89
2023/07/27 09:18:11;;;;;;;;;0.00;0.00;;;;;22.64;52.24;100707.34;6277384;22;46541;-89
2023/07/27 09:20:36;;;;;;;;;0.33;0.33;;;;;22.67;51.66;100707.09;6278218;22;45620;-89
2023/07/27 09:23:03;;;;;;;;;0.33;0.33;;;;;22.74;51.45;100718.00;6277502;22;45372;-89
2023/07/27 09:25:28;;;;;;;;;0.67;0.33;;;;;22.76;51.59;100708.09;6278525;22;45410;-89
2023/07/27 09:27:56;;;;;;;;;0.33;0.33;;;;;22.78;50.63;100715.91;6276532;22;46444;-89
2023/07/27 09:30:23;;;;;;;;;0.00;0.00;;;;;22.78;50.97;100711.44;6276621;22;45133;-89
2023/07/27 09:32:50;;;;;;;;;0.00;0.00;;;;;22.78;51.02;100719.38;6278240;22;45249;-89
2023/07/27 09:35:18;;;;;;;;;0.67;0.67;;;;;22.80;50.64;100712.16;6278089;22;45372;-88
2023/07/27 09:37:56;;;;;;;;;0.00;0.00;;;;;22.85;50.77;100717.03;6277172;22;46097;-88
2023/07/27 09:40:24;;;;;;;;;0.00;0.00;;;;;22.96;50.86;100702.84;6277192;22;45645;-89
2023/07/27 09:42:50;;;;;;;;;2.00;0.00;;;;;23.00;50.09;100708.69;6278191;22;45338;-88
2023/07/27 09:45:15;;;;;;;;;0.00;0.00;;;;;23.01;50.08;100711.19;6275983;22;45507;-89
2023/07/27 09:47:41;;;;;;;;;0.33;0.33;;;;;23.06;50.13;100708.16;6234147;22;45895;-89
2023/07/27 09:50:08;;;;;;;;;0.00;0.00;;;;;23.16;50.49;100727.56;6304743;22;45408;-87
2023/07/27 09:52:35;;;;;;;;;0.00;0.00;;;;;23.29;50.19;100703.38;6277809;22;45461;-88
2023/07/27 09:55:01;;;;;;;;;0.00;0.00;;;;;23.44;49.70;100708.31;6276984;22;45219;-88
2023/07/27 09:57:27;;;;;;;;;0.00;0.00;;;;;23.62;50.13;100706.63;6305776;22;45442;-89
2023/07/27 09:59:52;;;;;;;;;0.00;0.00;;;;;23.85;49.63;100687.72;6276133;22;45390;-88
2023/07/27 10:02:20;;;;;;;;;0.00;0.00;;;;;24.01;49.67;100687.13;6305554;22;45263;-89
2023/07/27 10:04:49;;;;;;;;;0.00;0.00;;;;;24.21;48.64;100683.56;6276895;22;45291;-88
2023/07/27 10:07:17;;;;;;;;;0.00;0.00;;;;;24.37;48.87;100678.47;6277316;22;45513;-88
2023/07/27 10:09:43;;;;;;;;;0.00;0.00;;;;;24.57;48.25;100690.84;6294448;22;45248;-89
2023/07/27 10:12:09;;;;;;;;;0.33;0.00;;;;;24.66;48.01;100698.75;6275867;22;45319;-89
2023/07/27 10:14:34;;;;;;;;;0.00;0.00;;;;;24.70;47.59;100696.63;6306125;22;45651;-89
2023/07/27 10:17:01;;;;;;;;;0.00;0.00;;;;;24.69;47.39;100694.94;6276116;22;48035;-88
2023/07/27 10:19:45;;;;;;;;;1.67;0.00;;;;;24.77;47.62;100684.38;6277694;22;45403;-89
2023/07/27 10:22:16;;;;;;;;;0.00;0.00;;;;;24.91;48.25;100691.03;6276693;22;45355;-89
2023/07/27 10:24:58;;;;;;;;;1.00;0.33;;;;;25.07;47.44;100689.53;6276653;22;45476;-90
2023/07/27 10:27:23;;;;;;;;;2.33;1.00;;;;;25.20;46.85;100695.34;6304934;22;45443;-89
2023/07/27 10:30:18;;;;;;;;;0.33;0.33;;;;;25.27;46.45;100700.03;6299248;22;45472;-89
2023/07/27 10:33:08;;;;;;;;;1.00;1.00;;;;;25.34;46.36;100691.28;6273344;22;45923;-89
2023/07/27 10:36:00;;;;;;;;;1.00;1.00;;;;;25.39;46.08;100693.50;6272757;22;45234;-88
2023/07/27 10:38:25;;;;;;;;;1.00;1.00;;;;;25.43;45.88;100700.19;6271606;22;46730;-88
2023/07/27 10:40:52;;;;;;;;;1.00;1.00;;;;;25.40;46.19;100692.50;6271239;22;45488;-89
2023/07/27 10:43:19;;;;;;;;;0.67;0.67;;;;;25.31;45.81;100694.25;6271824;22;45367;-89
2023/07/27 10:45:53;;;;;;;;;2.00;2.00;;;;;25.15;45.17;100696.78;6273334;22;45402;-89
2023/07/27 10:48:18;;;;;;;;;0.00;0.00;;;;;25.02;45.33;100691.81;6273182;22;48372;-89
2023/07/27 10:50:44;;;;;;;;;2.00;0.33;;;;;24.84;45.70;100711.28;6272327;22;45490;-89
2023/07/27 10:53:10;;;;;;;;;0.00;0.00;;;;;24.68;46.28;100704.75;6301890;22;45301;-89
2023/07/27 10:55:40;;;;;;;;;1.67;1.00;;;;;24.52;46.06;100704.56;6273025;22;45772;-88
2023/07/27 10:58:07;;;;;;;;;2.00;1.00;;;;;24.42;46.87;100707.28;6234531;22;45864;-89
2023/07/27 11:00:36;;;;;;;;;4.00;1.00;;;;;24.33;46.72;100695.69;6211103;22;45532;-88
2023/07/27 11:03:02;;;;;;;;;0.33;0.33;;;;;24.23;46.89;100700.22;6209083;22;45526;-88
2023/07/27 11:05:28;;;;;;;;;0.33;0.33;;;;;24.15;46.81;100700.94;6235789;22;45355;-89
2023/07/27 11:08:01;;;;;;;;;1.67;1.33;;;;;24.08;47.04;100699.84;6209929;22;46322;-89
2023/07/27 11:10:30;;;;;;;;;1.00;1.00;;;;;24.01;47.24;100702.22;6236682;22;45798;-89
2023/07/27 11:12:56;;;;;;;;;1.00;1.00;;;;;23.96;47.15;100702.66;6210936;22;45387;-87
2023/07/27 11:15:26;;;;;;;;;0.00;0.00;;;;;23.88;47.27;100706.03;6212463;22;45561;-88
2023/07/27 11:17:54;;;;;;;;;0.00;0.00;;;;;23.82;46.72;100708.41;6210747;22;47902;-88
2023/07/27 11:20:25;;;;;;;;;2.00;2.00;;;;;23.72;47.25;100696.00;6237842;22;45299;-88
2023/07/27 11:22:52;;;;;;;;;0.33;0.00;;;;;23.65;47.52;100699.38;6237405;22;45439;-88
2023/07/27 11:25:18;;;;;;;;;0.67;0.67;;;;;23.59;47.77;100704.25;6239689;22;45556;-89
2023/07/27 11:27:48;;;;;;;;;1.00;1.00;;;;;23.50;48.85;100699.78;6236505;22;46614;-88
2023/07/27 11:30:17;;;;;;;;;2.67;2.67;;;;;23.39;49.20;100695.47;6274869;22;45508;-89
2023/07/27 11:32:43;;;;;;;;;2.33;2.33;;;;;23.34;49.99;100709.16;6301107;22;45437;-88
2023/07/27 11:35:08;;;;;;;;;1.33;1.33;;;;;23.25;50.04;100696.72;6302192;22;45423;-88
2023/07/27 11:37:34;;;;;;;;;1.00;1.00;;;;;23.20;49.85;100691.78;6299754;22;46553;-88
2023/07/27 11:39:59;;;;;;;;;1.33;1.00;;;;;23.19;49.94;100689.31;6301597;22;45339;-88
2023/07/27 11:42:26;;;;;;;;;2.67;2.67;;;;;23.14;49.81;100695.00;6300503;22;45599;-88
2023/07/27 11:44:52;;;;;;;;;2.00;2.00;;;;;23.14;50.26;100695.00;6302753;22;45269;-88
2023/07/27 11:47:17;;;;;;;;;3.00;2.00;;;;;23.07;49.43;100683.28;6302108;22;46556;-88
2023/07/27 11:49:44;;;;;;;;;3.00;3.00;;;;;23.05;49.58;100693.22;6302253;22;45416;-88
2023/07/27 11:52:09;;;;;;;;;1.33;1.33;;;;;22.99;49.61;100699.88;6302578;22;45254;-90
2023/07/27 11:54:39;;;;;;;;;2.33;2.33;;;;;22.90;49.42;100701.56;6301243;22;45388;-88
2023/07/27 11:57:05;;;;;;;;;1.33;1.33;;;;;22.83;50.21;100698.59;6302932;22;46376;-88
2023/07/27 11:59:31;;;;;;;;;2.33;2.33;;;;;22.80;49.69;100714.81;6302273;22;45392;-88
2023/07/27 12:01:57;;;;;;;;;3.33;3.33;;;;;22.75;50.21;100703.75;6301216;22;45420;-89
2023/07/27 12:04:25;;;;;;;;;3.33;3.33;;;;;22.69;50.24;100702.47;6303400;22;45551;-89
2023/07/27 12:06:51;;;;;;;;;3.33;3.33;;;;;22.65;50.89;100697.59;6299868;22;46335;-89
2023/07/27 12:09:16;;;;;;;;;3.67;3.67;;;;;22.65;51.33;100701.09;6326000;22;45380;-88
2023/07/27 12:11:43;;;;;;;;;3.33;3.33;;;;;22.68;51.42;100706.13;6299147;22;45881;-88
2023/07/27 12:14:09;;;;;;;;;4.00;3.00;;;;;22.69;51.46;100706.97;6302335;22;45342;-89
2023/07/27 12:16:45;;;;;;;;;1.33;1.33;;;;;22.71;51.39;100702.34;6299759;22;47091;-89
2023/07/27 12:19:11;;;;;;;;;4.67;4.67;;;;;22.72;51.69;100708.50;6299830;22;45385;-88
2023/07/27 12:21:38;;;;;;;;;2.67;2.67;;;;;22.69;51.33;100693.69;6301122;22;45437;-88
2023/07/27 12:24:11;;;;;;;;;3.33;3.33;;;;;22.67;51.16;100701.78;6275207;22;45353;-91
2023/07/27 12:26:37;;;;;;;;;3.67;3.67;;;;;22.71;51.52;100706.84;6299471;22;46839;-91
2023/07/27 12:29:03;;;;;;;;;5.00;3.33;;;;;22.73;50.93;100704.88;6301235;22;45824;-88
2023/07/27 12:31:29;;;;;;;;;4.75;3.25;;;;;22.76;51.09;100700.13;6300133;22;45253;-88
2023/07/27 12:33:55;;;;;;;;;2.33;2.33;;;;;22.78;51.26;100703.47;6300318;22;45283;-88
2023/07/27 12:36:20;;;;;;;;;2.00;2.00;;;;;22.83;51.35;100697.78;6301704;22;46502;-87
2023/07/27 12:38:46;;;;;;;;;4.00;4.00;;;;;22.89;51.11;100699.88;6299937;22;45482;-87
2023/07/27 12:41:12;;;;;;;;;2.67;2.67;;;;;22.97;51.18;100691.25;6299697;22;45789;-88
2023/07/27 12:43:39;;;;;;;;;3.67;1.67;;;;;23.06;50.96;100689.56;6302996;22;45309;-88
2023/07/27 12:46:05;;;;;;;;;6.67;3.67;;;;;23.17;50.87;100686.78;6301106;22;46853;-88
2023/07/27 12:48:30;;;;;;;;;3.00;2.67;;;;;23.25;51.18;100677.28;6296186;22;45378;-88
2023/07/27 12:50:55;;;;;;;;;2.67;2.00;;;;;23.34;50.65;100676.47;6300315;22;45248;-88
2023/07/27 12:53:21;;;;;;;;;3.33;3.33;;;;;23.40;50.69;100677.72;6302045;22;45357;-88
2023/07/27 12:55:47;;;;;;;;;3.67;2.00;;;;;23.45;50.89;100676.31;6300142;22;46757;-88
2023/07/27 12:58:12;;;;;;;;;2.00;2.00;;;;;23.51;51.84;100674.91;6301020;22;45339;-88
2023/07/27 13:00:38;;;;;;;;;3.00;3.00;;;;;23.56;51.64;100679.81;6303253;22;45375;-88
2023/07/27 13:03:03;;;;;;;;;2.00;2.00;;;;;23.56;51.59;100683.28;6302040;22;45666;-89
2023/07/27 13:05:31;;;;;;;;;3.00;2.00;;;;;23.51;51.52;100666.94;6301017;22;46264;-88
2023/07/27 13:07:57;;;;;;;;;4.00;4.00;;;;;23.43;51.32;100664.16;6300199;22;45366;-88
2023/07/27 13:10:23;;;;;;;;;2.00;2.00;;;;;23.40;51.98;100673.25;6300683;22;45464;-88
2023/07/27 13:12:51;;;;;;;;;2.33;2.33;;;;;23.34;52.25;100674.63;6299277;22;45484;-88
2023/07/27 13:15:18;;;;;;;;;3.00;2.67;;;;;23.29;52.15;100679.50;6275103;22;46834;-89
2023/07/27 13:17:44;;;;;;;;;2.33;1.33;;;;;23.22;52.41;100683.69;6302019;22;45167;-88
2023/07/27 13:20:10;;;;;;;;;3.33;2.67;;;;;23.04;52.30;100680.91;6302949;22;45411;-87
2023/07/27 13:22:37;;;;;;;;;4.33;4.33;;;;;22.93;53.25;100677.41;6299132;22;45378;-87
2023/07/27 13:25:03;;;;;;;;;4.00;2.67;;;;;22.81;53.80;100684.66;6299197;22;46915;-88
2023/07/27 13:27:31;;;;;;;;;2.00;2.00;;;;;22.72;54.31;100680.16;6299538;22;45471;-87
2023/07/27 13:29:57;;;;;;;;;7.33;3.67;;;;;22.62;54.92;100688.09;6298247;22;45255;-88
2023/07/27 13:32:22;;;;;;;;;4.33;3.33;;;;;22.50;55.60;100676.72;6326422;22;45392;-88
2023/07/27 13:34:47;;;;;;;;;2.33;2.33;;;;;22.39;55.86;100680.31;6299669;22;45438;-89
2023/07/27 13:37:13;;;;;;;;;4.33;4.33;;;;;22.35;56.22;100684.19;6274033;22;45768;-89
2023/07/27 13:39:39;;;;;;;;;3.67;3.67;;;;;22.32;56.96;100689.78;6299591;22;45840;-89
2023/07/27 13:42:05;;;;;;;;;4.00;4.00;;;;;22.29;56.98;100682.09;6298907;22;45381;-89
2023/07/27 13:44:30;;;;;;;;;3.33;3.33;;;;;22.32;57.34;100687.13;6325009;22;47805;-90
2023/07/27 13:46:56;;;;;;;;;2.00;2.00;;;;;22.30;57.63;100683.75;6326458;22;45415;-89
2023/07/27 13:49:21;;;;;;;;;3.67;3.67;;;;;22.26;57.66;100682.38;6301147;22;45427;-89
2023/07/27 13:51:47;;;;;;;;;2.00;2.00;;;;;22.23;58.05;100675.53;6300472;22;45419;-88
2023/07/27 13:54:12;;;;;;;;;2.00;2.00;;;;;22.22;57.81;100688.91;6300934;22;46964;-89
2023/07/27 13:56:37;;;;;;;;;6.00;4.00;;;;;22.21;57.99;100682.75;6300069;22;45507;-89
2023/07/27 13:59:03;;;;;;;;;3.33;3.00;;;;;22.18;58.25;100671.59;6301191;22;45499;-89
2023/07/27 14:01:28;;;;;;;;;5.33;2.67;;;;;22.14;57.99;100677.13;6302439;22;45328;-88
2023/07/27 14:03:53;;;;;;;;;3.00;3.00;;;;;22.13;58.05;100675.47;6304105;22;45405;-88
2023/07/27 14:06:19;;;;;;;;;3.33;3.33;;;;;22.11;58.67;100674.78;6300561;22;45331;-89
2023/07/27 14:08:45;;;;;;;;;4.00;3.00;;;;;22.08;58.85;100676.84;6301664;22;45235;-89
2023/07/27 14:11:10;;;;;;;;;3.00;2.67;;;;;22.05;58.61;100680.59;6305405;22;45321;-88
2023/07/27 14:13:36;;;;;;;;;3.67;3.67;;;;;22.07;58.38;100678.66;6300804;22;47871;-89
2023/07/27 14:16:02;;;;;;;;;4.67;4.67;;;;;22.05;58.79;100677.94;6256321;22;45451;-89
2023/07/27 14:18:27;;;;;;;;;3.33;3.33;;;;;22.06;58.86;100678.78;6301745;22;45640;-89
2023/07/27 14:20:52;;;;;;;;;4.67;4.33;;;;;22.03;59.29;100683.38;6302961;22;45412;-89
2023/07/27 14:23:18;;;;;;;;;3.67;2.33;;;;;21.98;59.11;100680.28;6303530;22;47825;-90
2023/07/27 14:25:45;;;;;;;;;4.67;3.33;;;;;21.97;59.22;100677.75;6303898;22;45647;-89
2023/07/27 14:28:10;;;;;;;;;6.00;3.33;;;;;21.93;59.49;100677.19;6303785;22;45361;-91
2023/07/27 14:30:36;;;;;;;;;4.00;3.00;;;;;21.90;59.71;100672.16;6304520;22;45274;-90
2023/07/27 14:33:02;;;;;;;;;3.33;2.67;;;;;21.88;59.73;100672.28;6303742;22;47189;-90
2023/07/27 14:35:27;;;;;;;;;7.00;5.00;;;;;21.88;59.75;100682.88;6303591;22;45481;-89
2023/07/27 14:37:53;;;;;;;;;4.33;4.00;;;;;21.88;59.73;100682.03;6303872;22;45385;-89
2023/07/27 14:40:18;;;;;;;;;4.33;4.33;;;;;21.91;60.00;100683.56;6302755;22;45424;-89
2023/07/27 14:42:43;;;;;;;;;5.33;4.67;;;;;21.92;60.03;100685.25;6303991;22;45383;-91
2023/07/27 14:45:09;;;;;;;;;3.67;3.00;;;;;21.92;60.26;100683.47;6302909;22;45402;-90
2023/07/27 14:47:34;;;;;;;;;4.67;4.33;;;;;21.92;60.51;100674.66;6307915;22;45233;-89
2023/07/27 14:50:00;;;;;;;;;6.00;5.00;;;;;21.89;60.12;100683.69;6305460;22;45642;-90
2023/07/27 14:52:25;;;;;;;;;4.33;4.00;;;;;21.88;60.05;100688.19;6305004;22;46627;-88
2023/07/27 14:54:51;;;;;;;;;4.00;3.33;;;;;21.84;60.51;100688.59;6304879;22;45326;-90
2023/07/27 14:57:16;;;;;;;;;4.33;4.33;;;;;21.82;60.77;100693.16;6303897;22;45368;-90
2023/07/27 14:59:42;;;;;;;;;4.33;4.33;;;;;21.74;61.21;100694.66;6305441;22;45389;-90
2023/07/27 15:02:08;;;;;;;;;7.00;4.00;;;;;21.72;61.62;100696.56;6305359;22;46287;-89
2023/07/27 15:04:34;;;;;;;;;5.00;4.67;;;;;21.66;60.93;100691.75;6305872;22;45238;-91
2023/07/27 15:07:00;;;;;;;;;4.67;4.67;;;;;21.62;61.66;100707.06;6330954;22;45300;-90
2023/07/27 15:09:25;;;;;;;;;5.00;5.00;;;;;21.55;61.51;100705.91;6304743;22;45718;-89
2023/07/27 15:11:51;;;;;;;;;4.67;4.00;;;;;21.46;61.95;100698.72;6303169;22;46566;-90
2023/07/27 15:14:16;;;;;;;;;6.67;5.00;;;;;21.33;62.12;100696.25;6330039;22;45481;-90
2023/07/27 15:16:41;;;;;;;;;2.67;2.67;;;;;21.20;61.94;100688.50;6305729;22;45291;-90
2023/07/27 15:19:07;;;;;;;;;5.00;5.00;;;;;21.18;62.37;100693.91;6306411;22;45475;-91
2023/07/27 15:21:32;;;;;;;;;4.00;4.00;;;;;21.20;62.57;100696.44;6306617;22;46373;-90
2023/07/27 15:23:58;;;;;;;;;5.00;4.67;;;;;21.17;62.24;100683.44;6305006;22;45429;-90
2023/07/27 15:26:24;;;;;;;;;5.00;4.00;;;;;21.17;62.46;100686.94;6301146;22;45055;-89
2023/07/27 15:28:49;;;;;;;;;5.67;5.00;;;;;21.21;62.40;100695.47;6301677;22;45560;-89
2023/07/27 15:31:15;;;;;;;;;4.67;4.67;;;;;21.17;62.44;100686.94;6300941;22;47936;-89
2023/07/27 15:33:41;;;;;;;;;4.33;3.00;;;;;21.16;63.00;100690.53;6302658;22;45626;-89
2023/07/27 15:36:07;;;;;;;;;4.00;4.00;;;;;21.14;63.08;100683.69;6300397;22;45578;-90
2023/07/27 15:38:32;;;;;;;;;4.67;4.67;;;;;21.15;62.79;100680.94;6300375;22;45486;-89
2023/07/27 15:41:00;;;;;;;;;6.00;5.67;;;;;21.15;62.84;100677.47;6300556;22;45515;-90
2023/07/27 15:43:25;;;;;;;;;3.67;3.33;;;;;21.12;62.67;100675.91;6302474;22;45359;-89
2023/07/27 15:45:50;;;;;;;;;5.00;5.00;;;;;21.11;63.01;100686.59;6301983;22;45279;-89
2023/07/27 15:48:20;;;;;;;;;5.00;5.00;;;;;21.07;63.11;100678.09;6302986;22;45388;-89
2023/07/27 15:50:46;;;;;;;;;3.67;3.67;;;;;21.06;63.19;100677.22;6301952;22;45359;-89
2023/07/27 15:53:12;;;;;;;;;5.00;4.33;;;;;21.05;63.71;100677.34;6326343;22;45197;-88
2023/07/27 15:55:38;;;;;;;;;7.67;6.00;;;;;21.04;63.04;100673.03;6299298;22;45233;-89
2023/07/27 15:58:07;;;;;;;;;10.00;6.67;;;;;21.02;63.38;100681.09;6300539;22;45717;-89
2023/07/27 16:00:33;;;;;;;;;6.00;6.00;;;;;21.00;63.37;100674.22;6300817;22;46791;-89
2023/07/27 16:02:59;;;;;;;;;5.00;5.00;;;;;20.98;63.78;100674.38;6300307;22;46039;-89
2023/07/27 16:05:26;;;;;;;;;7.67;6.33;;;;;20.95;64.09;100679.91;6299504;22;45464;-89
2023/07/27 16:07:54;;;;;;;;;5.67;5.33;;;;;20.94;64.03;100688.81;6299082;22;45418;-89
2023/07/27 16:10:20;;;;;;;;;8.33;6.67;;;;;20.93;64.01;100679.22;6299816;22;47340;-89
2023/07/27 16:12:45;;;;;;;;;5.33;5.33;;;;;20.90;63.98;100677.66;6299962;22;45371;-90
2023/07/27 16:15:11;;;;;;;;;4.67;4.67;;;;;20.90;63.99;100663.56;6322820;22;45510;-89
2023/07/27 16:17:36;;;;;;;;;6.33;6.33;;;;;20.91;64.00;100667.91;6300459;22;45462;-88
2023/07/27 16:20:03;;;;;;;;;5.33;5.33;;;;;20.90;63.88;100667.06;6299359;22;45589;-89
2023/07/27 16:22:29;;;;;;;;;5.00;5.00;;;;;20.91;63.86;100665.25;6301837;22;45793;-93
